createdAt,value
2023-05-06T00:00:06.890Z,7.57
2023-05-06T00:02:34.002Z,9.57
2023-05-06T00:05:01.286Z,9.10
2023-05-06T00:07:28.329Z,8.13
2023-05-06T00:09:55.449Z,10.13
2023-05-06T00:12:22.533Z,10.07
2023-05-06T00:14:49.563Z,12.68
2023-05-06T00:17:16.650Z,9.40
2023-05-06T00:19:44.352Z,10.32
2023-05-06T00:22:11.508Z,8.68
2023-05-06T00:24:38.583Z,7.15
2023-05-06T00:27:05.771Z,7.97
2023-05-06T00:29:32.910Z,9.48
2023-05-06T00:31:59.976Z,6.93
2023-05-06T00:34:27.105Z,8.43
2023-05-06T00:36:54.122Z,7.15
2023-05-06T00:39:21.208Z,9.57
2023-05-06T00:41:48.309Z,10.20
2023-05-06T00:44:15.426Z,9.20
2023-05-06T00:46:43.213Z,13.35
2023-05-06T00:49:10.519Z,11.82
2023-05-06T00:51:37.543Z,11.82
2023-05-06T00:54:04.682Z,9.02
2023-05-06T00:56:31.782Z,8.23
2023-05-06T00:58:58.781Z,11.05
2023-05-06T01:01:27.146Z,9.10
2023-05-06T01:03:57.296Z,9.25
2023-05-06T01:06:27.630Z,9.35
2023-05-06T01:09:13.656Z,9.35
2023-05-06T01:11:43.833Z,7.78
2023-05-06T01:14:14.494Z,6.88
2023-05-06T01:16:42.213Z,6.85
2023-05-06T01:19:14.003Z,9.18
2023-05-06T01:21:41.763Z,7.22
2023-05-06T01:24:08.824Z,7.03
2023-05-06T01:26:35.872Z,5.43
2023-05-06T01:29:03.898Z,8.20
2023-05-06T01:31:33.426Z,6.45
2023-05-06T01:34:06.387Z,26.90
2023-05-06T01:36:35.408Z,7.80
2023-05-06T01:39:18.455Z,5.80
2023-05-06T01:41:45.756Z,5.85
2023-05-06T01:44:12.915Z,11.10
2023-05-06T01:46:40.887Z,9.00
2023-05-06T01:49:11.382Z,7.70
2023-05-06T01:51:38.663Z,8.38
2023-05-06T01:54:05.859Z,6.22
2023-05-06T01:56:33.090Z,7.07
2023-05-06T01:59:00.327Z,8.57
2023-05-06T02:01:27.471Z,8.02
2023-05-06T02:03:54.686Z,8.73
2023-05-06T02:06:21.849Z,9.10
2023-05-06T02:08:49.354Z,8.73
2023-05-06T02:11:16.578Z,8.18
2023-05-06T02:13:43.662Z,8.35
2023-05-06T02:16:10.816Z,9.32
2023-05-06T02:18:37.879Z,9.23
2023-05-06T02:21:04.947Z,9.82
2023-05-06T02:23:32.193Z,8.27
2023-05-06T02:25:59.375Z,11.90
2023-05-06T02:28:26.462Z,8.40
2023-05-06T02:30:59.475Z,8.85
2023-05-06T02:33:26.662Z,10.07
2023-05-06T02:35:53.821Z,10.35
2023-05-06T02:38:21.756Z,11.18
2023-05-06T02:40:48.784Z,10.38
2023-05-06T02:43:15.904Z,9.10
2023-05-06T02:45:42.973Z,9.38
2023-05-06T02:48:10.139Z,13.68
2023-05-06T02:50:37.227Z,11.85
2023-05-06T02:53:04.277Z,10.68
2023-05-06T02:55:31.380Z,10.88
2023-05-06T02:57:58.442Z,11.68
2023-05-06T03:00:25.842Z,10.27
2023-05-06T03:02:52.951Z,11.95
2023-05-06T03:05:20.480Z,11.07
2023-05-06T03:07:47.613Z,11.48
2023-05-06T03:10:14.670Z,9.55
2023-05-06T03:12:41.859Z,11.98
2023-05-06T03:15:09.597Z,9.05
2023-05-06T03:17:37.677Z,10.00
2023-05-06T03:20:05.496Z,10.10
2023-05-06T03:22:32.527Z,11.48
2023-05-06T03:24:59.616Z,9.57
2023-05-06T03:27:27.173Z,10.68
2023-05-06T03:29:54.229Z,10.18
2023-05-06T03:32:21.501Z,8.80
2023-05-06T03:34:48.508Z,8.80
2023-05-06T03:37:15.588Z,9.00
2023-05-06T03:39:42.638Z,7.60
2023-05-06T03:42:10.035Z,8.18
2023-05-06T03:44:37.179Z,7.45
2023-05-06T03:47:04.261Z,12.25
2023-05-06T03:49:31.308Z,8.32
2023-05-06T03:51:58.384Z,5.93
2023-05-06T03:54:25.461Z,7.30
2023-05-06T03:56:52.545Z,6.32
2023-05-06T03:59:19.579Z,7.07
2023-05-06T04:01:46.841Z,11.30
2023-05-06T04:04:14.099Z,9.00
2023-05-06T04:06:41.267Z,11.82
2023-05-06T04:09:08.359Z,9.23
2023-05-06T04:11:36.145Z,10.27
2023-05-06T04:14:03.197Z,8.15
2023-05-06T04:16:30.254Z,7.10
2023-05-06T04:18:58.364Z,11.32
2023-05-06T04:21:25.451Z,9.73
2023-05-06T04:23:52.508Z,7.28
2023-05-06T04:26:19.606Z,12.27
2023-05-06T04:28:46.727Z,13.15
2023-05-06T04:31:14.601Z,7.50
2023-05-06T04:33:41.993Z,11.45
2023-05-06T04:36:09.317Z,13.90
2023-05-06T04:38:37.345Z,9.60
2023-05-06T04:41:05.340Z,9.55
2023-05-06T04:43:32.857Z,9.85
2023-05-06T04:46:00.251Z,8.82
2023-05-06T04:48:27.331Z,10.68
2023-05-06T04:50:54.485Z,17.88
2023-05-06T04:53:21.670Z,13.45
2023-05-06T04:55:48.759Z,12.55
2023-05-06T04:58:15.946Z,14.75
2023-05-06T05:00:43.325Z,16.15
2023-05-06T05:03:10.574Z,13.57
2023-05-06T05:05:37.695Z,22.25
2023-05-06T05:08:04.852Z,10.50
2023-05-06T05:10:31.942Z,12.35
2023-05-06T05:12:59.087Z,9.30
2023-05-06T05:15:26.263Z,15.43
2023-05-06T05:17:53.381Z,10.35
2023-05-06T05:20:20.540Z,9.52
2023-05-06T05:22:47.604Z,12.30
2023-05-06T05:25:14.897Z,10.43
2023-05-06T05:27:43.022Z,12.80
2023-05-06T05:30:10.376Z,12.02
2023-05-06T05:32:37.559Z,9.65
2023-05-06T05:35:04.863Z,9.70
2023-05-06T05:37:31.956Z,10.38
2023-05-06T05:39:59.075Z,12.15
2023-05-06T05:42:26.089Z,15.38
2023-05-06T05:44:53.103Z,12.55
2023-05-06T05:47:20.561Z,10.45
2023-05-06T05:49:47.645Z,11.57
2023-05-06T05:52:14.796Z,10.43
2023-05-06T05:54:41.844Z,11.73
2023-05-06T05:57:08.862Z,12.02
2023-05-06T05:59:35.950Z,21.55
2023-05-06T06:02:03.308Z,9.32
2023-05-06T06:04:30.416Z,8.07
2023-05-06T06:07:01.870Z,9.25
2023-05-06T06:09:28.950Z,6.90
2023-05-06T06:11:56.048Z,6.55
2023-05-06T06:14:23.139Z,7.05
2023-05-06T06:16:50.305Z,5.47
2023-05-06T06:19:17.789Z,5.45
2023-05-06T06:21:44.869Z,4.55
2023-05-06T06:24:12.887Z,4.82
2023-05-06T06:26:39.974Z,4.72
2023-05-06T06:29:07.061Z,9.00
2023-05-06T06:31:34.864Z,7.30
2023-05-06T06:34:06.317Z,9.35
2023-05-06T06:36:33.526Z,9.10
2023-05-06T06:39:00.575Z,7.55
2023-05-06T06:41:28.129Z,6.68
2023-05-06T06:43:55.823Z,4.93
2023-05-06T06:46:23.023Z,4.43
2023-05-06T06:48:50.433Z,4.63
2023-05-06T06:51:17.510Z,9.77
2023-05-06T06:53:44.671Z,6.10
2023-05-06T06:56:12.446Z,5.97
2023-05-06T06:58:39.565Z,5.85
2023-05-06T07:01:06.696Z,4.60
2023-05-06T07:03:33.810Z,4.93
2023-05-06T07:06:00.921Z,6.78
2023-05-06T07:08:27.947Z,6.90
2023-05-06T07:10:55.488Z,4.63
2023-05-06T07:13:25.403Z,4.03
2023-05-06T07:15:52.467Z,4.25
2023-05-06T07:18:19.540Z,4.45
2023-05-06T07:20:46.623Z,4.40
2023-05-06T07:23:13.669Z,4.70
2023-05-06T07:25:40.773Z,6.25
2023-05-06T07:28:08.248Z,5.07
2023-05-06T07:30:35.291Z,5.82
2023-05-06T07:33:02.340Z,4.93
2023-05-06T07:35:29.427Z,3.42
2023-05-06T07:37:56.487Z,5.00
2023-05-06T07:40:23.665Z,5.53
2023-05-06T07:42:51.082Z,4.15
2023-05-06T07:45:19.607Z,10.05
2023-05-06T07:47:46.743Z,4.15
2023-05-06T07:50:13.783Z,5.60
2023-05-06T07:52:40.831Z,4.82
2023-05-06T07:55:09.967Z,3.20
2023-05-06T07:57:37.366Z,3.27
2023-05-06T08:00:04.672Z,8.02
2023-05-06T08:02:31.999Z,4.30
2023-05-06T08:04:59.430Z,3.63
2023-05-06T08:07:26.465Z,3.53
2023-05-06T08:09:53.835Z,4.72
2023-05-06T08:12:21.238Z,4.38
2023-05-06T08:14:48.353Z,5.20
2023-05-06T08:17:15.474Z,4.75
2023-05-06T08:19:42.505Z,3.63
2023-05-06T08:22:09.502Z,5.53
2023-05-06T08:24:36.566Z,8.25
2023-05-06T08:27:04.256Z,6.38
2023-05-06T08:29:31.272Z,4.68
2023-05-06T08:31:58.401Z,5.38
2023-05-06T08:34:25.444Z,4.05
2023-05-06T08:36:52.538Z,3.33
2023-05-06T08:39:19.617Z,4.47
2023-05-06T08:41:48.300Z,3.83
2023-05-06T08:44:16.036Z,5.80
2023-05-06T08:46:43.102Z,4.75
2023-05-06T08:49:10.905Z,2.22
2023-05-06T08:51:38.045Z,2.65
2023-05-06T08:54:05.150Z,4.82
2023-05-06T08:56:33.558Z,4.45
2023-05-06T08:59:01.243Z,2.67
2023-05-06T09:01:28.497Z,3.38
2023-05-06T09:03:56.196Z,5.63
2023-05-06T09:06:24.040Z,3.42
2023-05-06T09:08:51.263Z,3.97
2023-05-06T09:11:21.913Z,3.90
2023-05-06T09:13:49.015Z,2.80
2023-05-06T09:16:31.495Z,4.25
2023-05-06T09:18:58.755Z,6.88
2023-05-06T09:21:38.657Z,3.95
2023-05-06T09:24:06.337Z,3.60
2023-05-06T09:26:34.030Z,5.03
2023-05-06T09:29:01.270Z,11.10
2023-05-06T09:31:28.814Z,3.63
2023-05-06T09:33:56.464Z,6.45
2023-05-06T09:36:23.877Z,3.65
2023-05-06T09:38:51.104Z,4.25
2023-05-06T09:41:20.815Z,2.50
2023-05-06T09:43:49.186Z,4.55
2023-05-06T09:46:19.676Z,3.38
2023-05-06T09:48:47.021Z,3.38
2023-05-06T09:51:14.097Z,4.53
2023-05-06T09:53:41.510Z,3.13
2023-05-06T09:56:09.119Z,2.85
2023-05-06T09:58:37.127Z,4.18
2023-05-06T10:01:05.019Z,2.03
2023-05-06T10:03:32.361Z,2.13
2023-05-06T10:06:00.874Z,3.42
2023-05-06T10:08:27.959Z,5.57
2023-05-06T10:10:55.070Z,4.65
2023-05-06T10:13:22.498Z,3.97
2023-05-06T10:18:19.060Z,3.30
2023-05-06T10:20:46.399Z,5.50
2023-05-06T10:23:13.438Z,4.28
2023-05-06T10:25:42.362Z,3.03
2023-05-06T10:28:16.625Z,3.70
2023-05-06T10:30:53.395Z,4.43
2023-05-06T10:33:20.554Z,5.10
2023-05-06T10:36:06.512Z,3.85
2023-05-06T10:38:34.399Z,4.88
2023-05-06T10:41:01.559Z,2.38
2023-05-06T10:43:35.063Z,5.80
2023-05-06T10:46:03.069Z,4.50
2023-05-06T10:48:30.843Z,3.95
2023-05-06T10:51:19.826Z,5.78
2023-05-06T10:53:56.464Z,3.88
2023-05-06T10:56:23.500Z,2.38
2023-05-06T10:58:50.737Z,3.65
2023-05-06T11:01:17.900Z,5.00
2023-05-06T11:03:45.070Z,5.45
2023-05-06T11:06:12.208Z,2.75
2023-05-06T11:08:39.297Z,2.65
2023-05-06T11:11:24.890Z,4.07
2023-05-06T11:13:53.547Z,5.72
2023-05-06T11:16:39.289Z,2.83
2023-05-06T11:19:06.443Z,2.17
2023-05-06T11:21:33.720Z,4.57
2023-05-06T11:24:00.807Z,3.72
2023-05-06T11:26:27.962Z,3.10
2023-05-06T11:28:55.843Z,3.30
2023-05-06T11:31:22.990Z,2.85
2023-05-06T11:33:51.196Z,2.58
2023-05-06T11:36:18.467Z,5.28
2023-05-06T11:38:52.602Z,4.30
2023-05-06T11:41:20.054Z,2.58
2023-05-06T11:43:47.591Z,2.55
2023-05-06T11:46:14.656Z,3.35
2023-05-06T11:48:41.734Z,2.83
2023-05-06T11:51:08.795Z,1.63
2023-05-06T11:53:35.835Z,4.78
2023-05-06T11:56:02.941Z,4.07
2023-05-06T11:58:30.380Z,2.05
2023-05-06T12:00:58.411Z,3.58
2023-05-06T12:03:26.023Z,2.90
2023-05-06T12:05:53.260Z,1.75
2023-05-06T12:08:33.022Z,1.63
2023-05-06T12:11:00.569Z,2.08
2023-05-06T12:13:27.883Z,2.20
2023-05-06T12:15:55.446Z,2.38
2023-05-06T12:18:23.092Z,1.83
2023-05-06T12:20:50.148Z,1.20
2023-05-06T12:23:17.300Z,1.60
2023-05-06T12:25:49.014Z,2.85
2023-05-06T12:28:16.061Z,2.30
2023-05-06T12:30:43.210Z,2.20
2023-05-06T12:33:11.205Z,1.58
2023-05-06T12:35:38.469Z,3.53
2023-05-06T12:38:09.448Z,3.28
2023-05-06T12:40:36.635Z,3.47
2023-05-06T12:43:03.718Z,1.45
2023-05-06T12:45:30.857Z,2.55
2023-05-06T12:47:58.600Z,2.30
2023-05-06T12:50:44.817Z,2.13
2023-05-06T12:53:14.135Z,1.70
2023-05-06T12:55:45.316Z,1.80
2023-05-06T12:58:16.393Z,3.90
2023-05-06T13:00:43.573Z,2.92
2023-05-06T13:03:13.690Z,1.83
2023-05-06T13:05:41.424Z,3.22
2023-05-06T13:08:08.497Z,1.70
2023-05-06T13:10:35.656Z,2.95
2023-05-06T13:13:02.806Z,2.45
2023-05-06T13:15:30.233Z,1.60
2023-05-06T13:17:57.424Z,2.30
2023-05-06T13:20:24.534Z,2.33
2023-05-06T13:22:54.911Z,2.22
2023-05-06T13:25:22.159Z,2.60
2023-05-06T13:27:49.216Z,4.53
2023-05-06T13:30:17.012Z,4.78
2023-05-06T13:32:44.225Z,3.13
2023-05-06T13:35:11.449Z,3.10
2023-05-06T13:37:38.714Z,4.00
2023-05-06T13:40:06.401Z,1.58
2023-05-06T13:42:33.544Z,1.70
2023-05-06T13:45:00.797Z,2.00
2023-05-06T13:47:27.965Z,6.28
2023-05-06T13:49:55.044Z,2.50
2023-05-06T13:52:22.104Z,2.13
2023-05-06T13:54:49.500Z,2.40
2023-05-06T13:57:17.342Z,3.42
2023-05-06T13:59:44.360Z,2.08
2023-05-06T14:02:12.020Z,2.97
2023-05-06T14:04:39.282Z,2.85
2023-05-06T14:07:06.580Z,3.85
2023-05-06T14:09:33.633Z,4.40
2023-05-06T14:12:01.250Z,3.42
2023-05-06T14:14:28.334Z,3.45
2023-05-06T14:16:55.642Z,2.42
2023-05-06T14:19:23.400Z,2.25
2023-05-06T14:21:51.737Z,3.20
2023-05-06T14:24:18.845Z,2.97
2023-05-06T14:26:46.091Z,2.40
2023-05-06T14:29:13.224Z,2.67
2023-05-06T14:31:40.258Z,4.38
2023-05-06T14:34:07.344Z,2.03
2023-05-06T14:36:34.386Z,1.67
2023-05-06T14:39:01.457Z,3.05
2023-05-06T14:41:28.715Z,1.40
2023-05-06T14:43:55.762Z,2.00
2023-05-06T14:46:22.944Z,1.80
2023-05-06T14:48:50.650Z,2.38
2023-05-06T14:51:17.778Z,3.35
2023-05-06T14:53:46.667Z,1.80
2023-05-06T14:56:13.749Z,3.20
2023-05-06T14:58:41.327Z,1.83
2023-05-06T15:01:08.502Z,2.40
2023-05-06T15:03:36.348Z,5.75
2023-05-06T15:06:03.501Z,2.35
2023-05-06T15:08:30.618Z,2.42
2023-05-06T15:10:57.734Z,2.83
2023-05-06T15:13:24.852Z,2.42
2023-05-06T15:15:52.084Z,1.92
2023-05-06T15:18:19.150Z,1.70
2023-05-06T15:20:46.216Z,5.63
2023-05-06T15:23:13.378Z,2.70
2023-05-06T15:25:40.743Z,2.72
2023-05-06T15:28:08.760Z,2.58
2023-05-06T15:30:37.527Z,3.13
2023-05-06T15:33:04.715Z,2.75
2023-05-06T15:35:32.199Z,2.05
2023-05-06T15:37:59.353Z,5.38
2023-05-06T15:40:26.900Z,3.33
2023-05-06T15:42:54.037Z,2.45
2023-05-06T15:45:21.170Z,1.77
2023-05-06T15:47:48.404Z,1.70
2023-05-06T15:50:28.994Z,2.58
2023-05-06T15:53:01.202Z,2.72
2023-05-06T15:55:28.333Z,2.22
2023-05-06T15:57:55.444Z,2.00
2023-05-06T16:00:22.576Z,3.08
2023-05-06T16:02:49.809Z,2.60
2023-05-06T16:05:17.222Z,2.40
2023-05-06T16:07:44.286Z,6.03
2023-05-06T16:10:11.669Z,2.35
2023-05-06T16:12:38.998Z,3.65
2023-05-06T16:15:06.316Z,3.42
2023-05-06T16:17:37.367Z,1.58
2023-05-06T16:20:05.317Z,37.03
2023-05-06T16:22:32.419Z,2.72
2023-05-06T16:24:59.468Z,1.17
2023-05-06T16:27:28.088Z,2.08
2023-05-06T16:29:55.557Z,1.50
2023-05-06T16:32:22.673Z,2.47
2023-05-06T16:34:49.748Z,3.45
2023-05-06T16:37:16.831Z,2.35
2023-05-06T16:39:43.883Z,1.35
2023-05-06T16:42:10.916Z,12.95
2023-05-06T16:44:37.975Z,2.25
2023-05-06T16:47:05.607Z,2.28
2023-05-06T16:49:33.560Z,1.45
2023-05-06T16:52:00.933Z,2.15
2023-05-06T16:54:28.030Z,5.20
2023-05-06T16:56:55.148Z,2.58
2023-05-06T16:59:22.655Z,1.15
2023-05-06T17:01:50.034Z,1.65
2023-05-06T17:04:17.262Z,2.50
2023-05-06T17:06:44.401Z,5.32
2023-05-06T17:09:12.095Z,2.33
2023-05-06T17:11:39.222Z,1.10
2023-05-06T17:14:06.289Z,1.30
2023-05-06T17:16:33.448Z,3.33
2023-05-06T17:19:01.124Z,1.27
2023-05-06T17:21:28.185Z,3.45
2023-05-06T17:23:55.336Z,2.65
2023-05-06T17:26:22.624Z,5.03
2023-05-06T17:28:50.831Z,1.73
2023-05-06T17:31:20.760Z,2.85
2023-05-06T17:33:47.956Z,3.80
2023-05-06T17:36:16.634Z,1.58
2023-05-06T17:38:43.859Z,2.08
2023-05-06T17:41:12.179Z,3.75
2023-05-06T17:43:39.292Z,3.88
2023-05-06T17:46:06.744Z,1.98
2023-05-06T17:48:33.921Z,1.27
2023-05-06T17:51:04.212Z,1.88
2023-05-06T17:53:33.310Z,3.38
2023-05-06T17:56:00.342Z,3.53
2023-05-06T17:58:27.516Z,2.33
2023-05-06T18:00:54.565Z,2.42
2023-05-06T18:03:21.733Z,1.20
2023-05-06T18:05:48.877Z,1.70
2023-05-06T18:08:15.970Z,2.42
2023-05-06T18:10:43.045Z,2.03
2023-05-06T18:13:10.180Z,2.53
2023-05-06T18:15:37.340Z,1.40
2023-05-06T18:18:04.574Z,1.88
2023-05-06T18:20:31.700Z,2.13
2023-05-06T18:22:59.159Z,2.70
2023-05-06T18:25:26.222Z,2.05
2023-05-06T18:27:53.273Z,2.00
2023-05-06T18:30:20.453Z,3.53
2023-05-06T18:32:49.441Z,2.83
2023-05-06T18:35:18.745Z,1.92
2023-05-06T18:37:45.759Z,2.53
2023-05-06T18:40:13.530Z,2.13
2023-05-06T18:42:40.682Z,1.90
2023-05-06T18:45:08.236Z,1.40
2023-05-06T18:47:37.445Z,1.38
2023-05-06T18:50:04.578Z,1.38
2023-05-06T18:52:31.649Z,1.85
2023-05-06T18:54:58.685Z,4.65
2023-05-06T18:57:26.899Z,1.63
2023-05-06T18:59:54.037Z,3.30
2023-05-06T19:02:21.224Z,1.80
2023-05-06T19:04:48.387Z,4.13
2023-05-06T19:07:16.370Z,1.77
2023-05-06T19:09:43.519Z,1.70
2023-05-06T19:12:10.560Z,2.78
2023-05-06T19:14:37.668Z,2.38
2023-05-06T19:17:05.093Z,3.95
2023-05-06T19:19:32.289Z,2.95
2023-05-06T19:22:01.737Z,5.18
2023-05-06T19:24:30.021Z,3.83
2023-05-06T19:26:57.062Z,3.83
2023-05-06T19:29:24.232Z,2.20
2023-05-06T19:31:51.389Z,4.10
2023-05-06T19:34:18.483Z,7.25
2023-05-06T19:36:45.536Z,4.25
2023-05-06T19:39:12.561Z,4.55
2023-05-06T19:41:39.952Z,2.67
2023-05-06T19:44:06.984Z,2.28
2023-05-06T19:46:34.091Z,3.72
2023-05-06T19:49:01.327Z,2.42
2023-05-06T19:51:28.402Z,3.20
2023-05-06T19:53:55.675Z,3.58
2023-05-06T19:56:22.793Z,2.97
2023-05-06T19:58:51.033Z,4.50
2023-05-06T20:01:22.348Z,2.67
2023-05-06T20:03:49.526Z,3.35
2023-05-06T20:06:17.134Z,3.15
2023-05-06T20:08:44.278Z,3.35
2023-05-06T20:11:11.328Z,5.55
2023-05-06T20:13:38.460Z,4.53
2023-05-06T20:16:05.625Z,3.70
2023-05-06T20:18:33.543Z,2.50
2023-05-06T20:21:00.822Z,2.85
2023-05-06T20:23:27.956Z,3.20
2023-05-06T20:25:55.113Z,6.05
2023-05-06T20:28:22.143Z,5.20
2023-05-06T20:30:49.263Z,4.07
2023-05-06T20:33:16.585Z,5.65
2023-05-06T20:35:43.636Z,5.72
2023-05-06T20:38:10.932Z,4.50
2023-05-06T20:40:37.996Z,3.17
2023-05-06T20:43:05.047Z,3.53
2023-05-06T20:45:32.229Z,1.92
2023-05-06T20:47:59.368Z,2.63
2023-05-06T20:50:28.516Z,4.85
2023-05-06T20:52:55.585Z,2.40
2023-05-06T20:55:25.835Z,3.13
2023-05-06T21:00:20.659Z,2.97
2023-05-06T21:02:48.023Z,3.30
2023-05-06T21:05:15.410Z,4.55
2023-05-06T21:07:42.525Z,3.20
2023-05-06T21:10:10.958Z,3.83
2023-05-06T21:12:38.183Z,2.25
2023-05-06T21:15:05.804Z,4.00
2023-05-06T21:17:32.993Z,3.30
2023-05-06T21:20:00.097Z,3.80
2023-05-06T21:22:27.169Z,5.97
2023-05-06T21:24:55.786Z,4.13
2023-05-06T21:27:22.880Z,3.05
2023-05-06T21:29:49.893Z,6.35
2023-05-06T21:32:17.058Z,6.07
2023-05-06T21:34:44.097Z,4.22
2023-05-06T21:37:11.545Z,5.18
2023-05-06T21:39:38.626Z,4.90
2023-05-06T21:42:05.664Z,6.00
2023-05-06T21:44:32.736Z,3.45
2023-05-06T21:46:59.810Z,2.47
2023-05-06T21:49:26.869Z,3.72
2023-05-06T21:51:53.990Z,3.63
2023-05-06T21:54:21.045Z,5.47
2023-05-06T21:56:48.150Z,5.15
2023-05-06T21:59:15.299Z,4.75
2023-05-06T22:01:42.410Z,4.88
2023-05-06T22:04:12.921Z,4.75
2023-05-06T22:06:40.431Z,5.97
2023-05-06T22:09:09.628Z,4.90
2023-05-06T22:11:40.120Z,4.30
2023-05-06T22:14:07.283Z,3.88
2023-05-06T22:16:35.472Z,3.58
2023-05-06T22:19:03.831Z,5.43
2023-05-06T22:21:31.852Z,4.88
2023-05-06T22:23:58.876Z,4.15
2023-05-06T22:26:27.977Z,4.32
2023-05-06T22:28:56.241Z,3.38
2023-05-06T22:31:24.484Z,3.88
2023-05-06T22:33:57.693Z,3.38
2023-05-06T22:36:29.028Z,4.10
2023-05-06T22:38:56.445Z,3.40
2023-05-06T22:41:23.525Z,3.42
2023-05-06T22:43:50.649Z,3.65
2023-05-06T22:46:17.795Z,4.60
2023-05-06T22:48:46.966Z,5.32
2023-05-06T22:51:15.686Z,4.10
2023-05-06T22:53:42.808Z,5.53
2023-05-06T22:56:10.034Z,6.32
2023-05-06T22:58:37.159Z,4.03
2023-05-06T23:01:04.303Z,5.50
2023-05-06T23:03:31.473Z,3.45
2023-05-06T23:05:58.548Z,5.20
2023-05-06T23:08:25.653Z,5.82
2023-05-06T23:10:52.716Z,5.63
2023-05-06T23:13:19.781Z,5.43
2023-05-06T23:15:46.840Z,3.50
2023-05-06T23:18:13.941Z,4.78
2023-05-06T23:20:42.105Z,4.43
2023-05-06T23:23:10.659Z,4.28
2023-05-06T23:25:37.858Z,3.30
2023-05-06T23:28:05.004Z,3.15
2023-05-06T23:30:32.067Z,4.50
2023-05-06T23:32:59.248Z,4.47
2023-05-06T23:35:26.657Z,3.20
2023-05-06T23:37:53.704Z,5.72
2023-05-06T23:40:20.788Z,5.78
2023-05-06T23:42:47.918Z,4.28
2023-05-06T23:45:15.055Z,5.35
2023-05-06T23:47:42.240Z,4.32
2023-05-06T23:50:09.808Z,4.82
2023-05-06T23:52:38.154Z,2.67
2023-05-06T23:55:05.839Z,5.63
2023-05-06T23:57:32.915Z,3.70
2023-05-06T23:59:59.988Z,6.50
